Navigator Of The Seas — C6FU4 — position and weather

sailwx.info

Track history (hours):
 
Tides and Currents Weather Stations Pressure Air Temp Water Temp Dewpoint Dewpoint Depression Visibility Wind Speed Wind Dir Waves Ship Positions

Navigator Of The Seas

Operator: Royal Caribbean Cruises Ltd

Last reported at 2017-Sep-22 02:00 UTC. Time now 2017-Sep-22 06:17 UTC.
Position N 43°09' E 010°19'.

Type: Passenger vessel. MMSI: 311478000.

Date/timePositionNaut miles runAvg speedWind from/ knotsBaromVisibWave heightAir tempDewpointWater temp
2017-Sep-22 02:00N 43°09' E 010°19'611.5
2017-Sep-22 01:30N 43°04' E 010°22'611.7
2017-Sep-22 00:59N 42°58' E 010°26'2211.5
2017-Sep-21 23:05N 42°37' E 010°36'511.5
2017-Sep-21 22:38N 42°32' E 010°37'3312.0
2017-Sep-21 19:52N 42°07' E 011°06'93 4.2
2017-Sep-20 21:45N 43°08' E 009°31'520.6
2017-Sep-20 21:30N 43°10' E 009°25'1520.5
2017-Sep-20 20:47N 43°14' E 009°05'620.5
2017-Sep-20 20:31N 43°16' E 008°58'1020.4
2017-Sep-20 20:01N 43°18' E 008°44'1020.4
2017-Sep-20 19:31N 43°21' E 008°31'1020.6
2017-Sep-20 19:01N 43°24' E 008°17'1020.8
2017-Sep-20 18:31N 43°28' E 008°04'1320.4
2017-Sep-20 17:53N 43°31' E 007°47'1020.5
2017-Sep-20 17:25N 43°35' E 007°35'820.1
2017-Sep-20 17:00N 43°38' E 007°24'5 9.7
2017-Sep-20 16:30N 43°41' E 007°19'3 0.3
2017-Sep-20 06:24N 43°38' E 007°18'819.3
2017-Sep-20 06:00N 43°31' E 007°16'1020.3
2017-Sep-20 05:30N 43°21' E 007°11'1020.2
2017-Sep-20 05:00N 43°12' E 007°06'21019.7
2017-Sep-19 18:22N 40°54' E 003°34'720.2
2017-Sep-19 18:00N 40°49' E 003°26'1020.2
2017-Sep-19 17:30N 40°42' E 003°17'1020.4
2017-Sep-19 17:00N 40°36' E 003°06'1020.7
2017-Sep-19 16:30N 40°29' E 002°55'1020.8
2017-Sep-19 16:00N 40°22' E 002°45'1020.5
2017-Sep-19 15:30N 40°16' E 002°35'1020.6
2017-Sep-19 15:00N 40°09' E 002°24'1020.6
2017-Sep-19 14:30N 40°03' E 002°14'1020.5
2017-Sep-19 14:00N 39°56' E 002°04'1020.5
2017-Sep-19 13:30N 39°50' E 001°53'1020.2
2017-Sep-19 13:00N 39°43' E 001°43'1320.1
2017-Sep-19 12:23N 39°35' E 001°31'820.4
2017-Sep-19 12:00N 39°30' E 001°23'14020.6
2017-Sep-19 05:11N 37°39' W 000°25'420.5
2017-Sep-19 05:00N 37°36' W 000°28'1020.4
2017-Sep-19 04:30N 37°29' W 000°38'1020.1
2017-Sep-19 04:00N 37°20' W 000°45'1020.1
2017-Sep-19 03:30N 37°13' W 000°53'21720.5
2017-Sep-18 16:56N 35°60' W 005°08'921.5
2017-Sep-18 16:31N 36°02' W 005°18'712.0
2017-Sep-18 15:54N 36°09' W 005°22'1 0.2
2017-Sep-18 09:13N 36°08' W 005°23'310.2
2017-Sep-18 08:53N 36°04' W 005°22'615.5
2017-Sep-18 08:30N 35°59' W 005°25'8017.7
2017-Sep-18 04:01N 36°05' W 007°03'5717.5
2017-Sep-18 00:45N 36°20' W 008°11'4517.8
2017-Sep-17 22:11N 36°32' W 009°06'318.0
2017-Sep-17 22:00N 36°33' W 009°10'1618.0
2017-Sep-17 21:08N 36°41' W 009°26'6318.6
2017-Sep-17 17:44N 37°42' W 009°48'419.3
2017-Sep-17 17:30N 37°46' W 009°50'1419.4
2017-Sep-17 16:47N 37°60' W 009°54'619.4
2017-Sep-17 16:28N 38°05' W 009°55'919.7
2017-Sep-17 16:00N 38°14' W 009°58'1820.3
2017-Sep-17 15:08N 38°32' W 010°03'820.5
2017-Sep-17 14:45N 38°39' W 010°05'520.3
2017-Sep-17 14:30N 38°44' W 010°06'1020.2
2017-Sep-17 13:59N 38°55' W 010°06'1020.5
2017-Sep-17 13:30N 39°05' W 010°05'1020.5
2017-Sep-17 13:00N 39°15' W 010°05'1020.1
2017-Sep-17 12:30N 39°25' W 010°05'65519.9
2017-Sep-16 03:34N 49°31' W 004°16'120.6
2017-Sep-16 03:29N 49°32' W 004°14'1020.7
2017-Sep-16 03:00N 49°37' W 004°01'1020.5
2017-Sep-16 02:30N 49°42' W 003°48'1020.0
2017-Sep-16 02:00N 49°47' W 003°34'1019.8
2017-Sep-16 01:30N 49°50' W 003°20'1020.2
2017-Sep-16 01:00N 49°56' W 003°07'1020.1
2017-Sep-16 00:30N 50°01' W 002°53'1120.3
2017-Sep-15 23:58N 50°03' W 002°36'3521.1
2017-Sep-15 22:20N 50°18' W 001°48'722.1
2017-Sep-15 22:00N 50°21' W 001°38'1121.9
2017-Sep-15 21:30N 50°26' W 001°22'1122.0
2017-Sep-15 21:00N 50°31' W 001°07'916.4
2017-Sep-15 20:27N 50°38' W 000°59'0 1.0
2017-Sep-15 20:00N 50°39' W 000°59'0 0.0
2017-Sep-15 19:31N 50°39' W 000°59'0 0.1
2017-Sep-15 19:01N 50°39' W 000°60'0 0.2
2017-Sep-15 18:31N 50°39' W 000°59'4 7.1
2017-Sep-15 18:00N 50°42' W 000°59'510.6
2017-Sep-15 17:31N 50°45' W 001°06'612.8
2017-Sep-15 17:00N 50°46' W 001°16'5 9.2
2017-Sep-15 16:30N 50°50' W 001°19'5 8.8
2017-Sep-15 15:59N 50°54' W 001°25'0 0.9
2017-Sep-15 15:29N 50°54' W 001°25'0 0.0
2017-Sep-15 14:59N 50°54' W 001°25'0 0.0
2017-Sep-15 14:29N 50°54' W 001°25'0 0.0
2017-Sep-15 13:56N 50°54' W 001°25'0 0.0
2017-Sep-15 13:29N 50°54' W 001°25'0 0.0
2017-Sep-15 12:56N 50°54' W 001°25'0 0.0
2017-Sep-15 12:29N 50°54' W 001°25'0 0.0
2017-Sep-15 11:56N 50°54' W 001°25'0 0.0
2017-Sep-15 11:29N 50°54' W 001°25'0 0.0
2017-Sep-15 10:59N 50°54' W 001°25'0 0.0
2017-Sep-15 10:20N 50°54' W 001°25'0 0.0
2017-Sep-15 09:59N 50°54' W 001°25'0 0.0
2017-Sep-15 09:29N 50°54' W 001°25'0 0.0
2017-Sep-15 08:59N 50°54' W 001°25'0 0.0
2017-Sep-15 08:26N 50°54' W 001°25'0 0.0
2017-Sep-15 07:56N 50°54' W 001°25'0 0.0
2017-Sep-15 07:29N 50°54' W 001°25'0 0.0
2017-Sep-15 06:59N 50°54' W 001°25'0 0.0
2017-Sep-15 06:29N 50°54' W 001°25'0 0.0
2017-Sep-15 05:59N 50°54' W 001°25'0 0.0
2017-Sep-15 05:29N 50°54' W 001°25'0 0.0
2017-Sep-15 04:56N 50°54' W 001°25'0 0.0
2017-Sep-15 04:29N 50°54' W 001°25'0 0.1
2017-Sep-15 04:00N 50°54' W 001°25'2 3.5
2017-Sep-15 03:30N 50°53' W 001°23'510.0
2017-Sep-15 03:00N 50°49' W 001°18'4 8.2
2017-Sep-15 02:31N 50°46' W 001°14'815.1
2017-Sep-15 02:00N 50°44' W 001°02'510.7
2017-Sep-15 01:30N 50°39' W 000°59'713.1
2017-Sep-15 01:00N 50°32' W 000°59'816.1
2017-Sep-15 00:30N 50°24' W 001°01'2315.5
2017-Sep-14 22:59N 50°01' W 000°54'1214.7
2017-Sep-14 22:12N 49°52' W 000°42'1315.1
2017-Sep-14 21:20N 49°43' W 000°28'515.0
2017-Sep-14 21:00N 49°40' W 000°22'714.7
2017-Sep-14 20:30N 49°35' W 000°14'611.9
2017-Sep-14 20:00N 49°32' W 000°06'611.5
2017-Sep-14 19:30N 49°30' E 000°02'3 5.8
2017-Sep-14 19:00N 49°29' E 000°06'0 0.0
2017-Sep-14 18:30N 49°29' E 000°06'0 0.0
2017-Sep-14 18:00N 49°29' E 000°06'0 0.0
2017-Sep-14 17:30N 49°29' E 000°06'0 0.0
2017-Sep-14 17:00N 49°29' E 000°06'0 0.0
2017-Sep-14 16:30N 49°29' E 000°06'0 0.0
2017-Sep-14 16:00N 49°29' E 000°06'0 0.0
2017-Sep-14 15:30N 49°29' E 000°06'0 0.0
2017-Sep-14 15:00N 49°29' E 000°06'0 0.0
2017-Sep-14 14:30N 49°29' E 000°06'0 0.0
2017-Sep-14 14:00N 49°29' E 000°06'0 0.0
2017-Sep-14 13:30N 49°29' E 000°06'0 0.0
2017-Sep-14 13:00N 49°29' E 000°06'0 0.0
2017-Sep-14 12:30N 49°29' E 000°06'0 0.0
2017-Sep-14 12:00N 49°29' E 000°06'0 0.0
2017-Sep-14 11:30N 49°29' E 000°06'0 0.0
2017-Sep-14 11:00N 49°29' E 000°06'0 0.0
2017-Sep-14 10:30N 49°29' E 000°06'0 0.0
2017-Sep-14 10:00N 49°29' E 000°06'0 0.0
2017-Sep-14 09:30N 49°29' E 000°06'0 0.0
2017-Sep-14 09:00N 49°29' E 000°06'0 0.0
2017-Sep-14 08:30N 49°29' E 000°06'0 0.0
2017-Sep-14 08:00N 49°29' E 000°06'0 0.0
2017-Sep-14 07:30N 49°29' E 000°06'0 0.0
2017-Sep-14 07:00N 49°29' E 000°06'0 0.0
2017-Sep-14 06:30N 49°29' E 000°06'0 0.8
2017-Sep-14 06:00N 49°29' E 000°07'2 3.6
2017-Sep-14 05:30N 49°29' E 000°04'713.0
2017-Sep-14 05:00N 49°31' W 000°05'0 0.9
2017-Sep-14 04:30N 49°31' W 000°06'0 0.1
2017-Sep-14 04:00N 49°31' W 000°06'3 5.1
2017-Sep-14 03:30N 49°32' W 000°10'612.9
2017-Sep-14 03:01N 49°35' W 000°18'918.1
2017-Sep-14 02:30N 49°40' W 000°30'918.2
2017-Sep-14 02:00N 49°46' W 000°42'918.5
2017-Sep-14 01:30N 49°51' W 000°53'1019.0
2017-Sep-14 01:00N 49°56' W 001°05'1019.5
2017-Sep-14 00:30N 49°58' W 001°20'1121.7
2017-Sep-14 00:01N 49°58' W 001°37'1122.1
2017-Sep-13 23:30N 49°58' W 001°54'1121.6
2017-Sep-13 23:01N 49°57' W 002°11'2220.5
2017-Sep-13 21:55N 49°51' W 002°44'2320.3
2017-Sep-13 20:47N 49°40' W 003°16'620.2
2017-Sep-13 20:30N 49°37' W 003°23'2420.1
2017-Sep-13 19:20N 49°26' W 003°56'4219.7
2017-Sep-13 17:12N 49°05' W 004°52'617.3
2017-Sep-13 16:52N 49°02' W 004°59'616.9
2017-Sep-13 16:30N 48°59' W 005°07'916.8
2017-Sep-13 15:59N 48°54' W 005°18'817.0
2017-Sep-13 15:30N 48°50' W 005°29'815.7
2017-Sep-13 14:59N 48°45' W 005°39'1915.7
2017-Sep-13 13:48N 48°28' W 005°49'2116.7
2017-Sep-13 12:33N 48°09' W 005°60'  
Track history (hours):
 
Tides and Currents Weather Stations Pressure Air Temp Water Temp Dewpoint Dewpoint Depression Visibility Wind Speed Wind Dir Waves Ship Positions

Navigator Of The Seas

Operator: Royal Caribbean Cruises Ltd

Last reported at 2017-Sep-22 02:00 UTC. Time now 2017-Sep-22 06:17 UTC.
Position N 43°09' E 010°19'.

Type: Passenger vessel. MMSI: 311478000.

Date/timePositionNaut miles runAvg speedWind from/ knotsBaromVisibWave heightAir tempDewpointWater temp
2017-Sep-22 02:00N 43°09' E 010°19'611.5
2017-Sep-22 01:30N 43°04' E 010°22'611.7
2017-Sep-22 00:59N 42°58' E 010°26'2211.5
2017-Sep-21 23:05N 42°37' E 010°36'511.5
2017-Sep-21 22:38N 42°32' E 010°37'3312.0
2017-Sep-21 19:52N 42°07' E 011°06'93 4.2
2017-Sep-20 21:45N 43°08' E 009°31'520.6
2017-Sep-20 21:30N 43°10' E 009°25'1520.5
2017-Sep-20 20:47N 43°14' E 009°05'620.5
2017-Sep-20 20:31N 43°16' E 008°58'1020.4
2017-Sep-20 20:01N 43°18' E 008°44'1020.4
2017-Sep-20 19:31N 43°21' E 008°31'1020.6
2017-Sep-20 19:01N 43°24' E 008°17'1020.8
2017-Sep-20 18:31N 43°28' E 008°04'1320.4
2017-Sep-20 17:53N 43°31' E 007°47'1020.5
2017-Sep-20 17:25N 43°35' E 007°35'820.1
2017-Sep-20 17:00N 43°38' E 007°24'5 9.7
2017-Sep-20 16:30N 43°41' E 007°19'3 0.3
2017-Sep-20 06:24N 43°38' E 007°18'819.3
2017-Sep-20 06:00N 43°31' E 007°16'1020.3
2017-Sep-20 05:30N 43°21' E 007°11'1020.2
2017-Sep-20 05:00N 43°12' E 007°06'21019.7
2017-Sep-19 18:22N 40°54' E 003°34'720.2
2017-Sep-19 18:00N 40°49' E 003°26'1020.2
2017-Sep-19 17:30N 40°42' E 003°17'1020.4
2017-Sep-19 17:00N 40°36' E 003°06'1020.7
2017-Sep-19 16:30N 40°29' E 002°55'1020.8
2017-Sep-19 16:00N 40°22' E 002°45'1020.5
2017-Sep-19 15:30N 40°16' E 002°35'1020.6
2017-Sep-19 15:00N 40°09' E 002°24'1020.6
2017-Sep-19 14:30N 40°03' E 002°14'1020.5
2017-Sep-19 14:00N 39°56' E 002°04'1020.5
2017-Sep-19 13:30N 39°50' E 001°53'1020.2
2017-Sep-19 13:00N 39°43' E 001°43'1320.1
2017-Sep-19 12:23N 39°35' E 001°31'820.4
2017-Sep-19 12:00N 39°30' E 001°23'14020.6
2017-Sep-19 05:11N 37°39' W 000°25'420.5
2017-Sep-19 05:00N 37°36' W 000°28'1020.4
2017-Sep-19 04:30N 37°29' W 000°38'1020.1
2017-Sep-19 04:00N 37°20' W 000°45'1020.1
2017-Sep-19 03:30N 37°13' W 000°53'21720.5
2017-Sep-18 16:56N 35°60' W 005°08'921.5
2017-Sep-18 16:31N 36°02' W 005°18'712.0
2017-Sep-18 15:54N 36°09' W 005°22'1 0.2
2017-Sep-18 09:13N 36°08' W 005°23'310.2
2017-Sep-18 08:53N 36°04' W 005°22'615.5
2017-Sep-18 08:30N 35°59' W 005°25'8017.7
2017-Sep-18 04:01N 36°05' W 007°03'5717.5
2017-Sep-18 00:45N 36°20' W 008°11'4517.8
2017-Sep-17 22:11N 36°32' W 009°06'318.0
2017-Sep-17 22:00N 36°33' W 009°10'1618.0
2017-Sep-17 21:08N 36°41' W 009°26'6318.6
2017-Sep-17 17:44N 37°42' W 009°48'419.3
2017-Sep-17 17:30N 37°46' W 009°50'1419.4
2017-Sep-17 16:47N 37°60' W 009°54'619.4
2017-Sep-17 16:28N 38°05' W 009°55'919.7
2017-Sep-17 16:00N 38°14' W 009°58'1820.3
2017-Sep-17 15:08N 38°32' W 010°03'820.5
2017-Sep-17 14:45N 38°39' W 010°05'520.3
2017-Sep-17 14:30N 38°44' W 010°06'1020.2
2017-Sep-17 13:59N 38°55' W 010°06'1020.5
2017-Sep-17 13:30N 39°05' W 010°05'1020.5
2017-Sep-17 13:00N 39°15' W 010°05'1020.1
2017-Sep-17 12:30N 39°25' W 010°05'65519.9
2017-Sep-16 03:34N 49°31' W 004°16'120.6
2017-Sep-16 03:29N 49°32' W 004°14'1020.7
2017-Sep-16 03:00N 49°37' W 004°01'1020.5
2017-Sep-16 02:30N 49°42' W 003°48'1020.0
2017-Sep-16 02:00N 49°47' W 003°34'1019.8
2017-Sep-16 01:30N 49°50' W 003°20'1020.2
2017-Sep-16 01:00N 49°56' W 003°07'1020.1
2017-Sep-16 00:30N 50°01' W 002°53'1120.3
2017-Sep-15 23:58N 50°03' W 002°36'3521.1
2017-Sep-15 22:20N 50°18' W 001°48'722.1
2017-Sep-15 22:00N 50°21' W 001°38'1121.9
2017-Sep-15 21:30N 50°26' W 001°22'1122.0
2017-Sep-15 21:00N 50°31' W 001°07'916.4
2017-Sep-15 20:27N 50°38' W 000°59'0 1.0
2017-Sep-15 20:00N 50°39' W 000°59'0 0.0
2017-Sep-15 19:31N 50°39' W 000°59'0 0.1
2017-Sep-15 19:01N 50°39' W 000°60'0 0.2
2017-Sep-15 18:31N 50°39' W 000°59'4 7.1
2017-Sep-15 18:00N 50°42' W 000°59'510.6
2017-Sep-15 17:31N 50°45' W 001°06'612.8
2017-Sep-15 17:00N 50°46' W 001°16'5 9.2
2017-Sep-15 16:30N 50°50' W 001°19'5 8.8
2017-Sep-15 15:59N 50°54' W 001°25'0 0.9
2017-Sep-15 15:29N 50°54' W 001°25'0 0.0
2017-Sep-15 14:59N 50°54' W 001°25'0 0.0
2017-Sep-15 14:29N 50°54' W 001°25'0 0.0
2017-Sep-15 13:56N 50°54' W 001°25'0 0.0
2017-Sep-15 13:29N 50°54' W 001°25'0 0.0
2017-Sep-15 12:56N 50°54' W 001°25'0 0.0
2017-Sep-15 12:29N 50°54' W 001°25'0 0.0
2017-Sep-15 11:56N 50°54' W 001°25'0 0.0
2017-Sep-15 11:29N 50°54' W 001°25'0 0.0
2017-Sep-15 10:59N 50°54' W 001°25'0 0.0
2017-Sep-15 10:20N 50°54' W 001°25'0 0.0
2017-Sep-15 09:59N 50°54' W 001°25'0 0.0
2017-Sep-15 09:29N 50°54' W 001°25'0 0.0
2017-Sep-15 08:59N 50°54' W 001°25'0 0.0
2017-Sep-15 08:26N 50°54' W 001°25'0 0.0
2017-Sep-15 07:56N 50°54' W 001°25'0 0.0
2017-Sep-15 07:29N 50°54' W 001°25'0 0.0
2017-Sep-15 06:59N 50°54' W 001°25'0 0.0
2017-Sep-15 06:29N 50°54' W 001°25'0 0.0
2017-Sep-15 05:59N 50°54' W 001°25'0 0.0
2017-Sep-15 05:29N 50°54' W 001°25'0 0.0
2017-Sep-15 04:56N 50°54' W 001°25'0 0.0
2017-Sep-15 04:29N 50°54' W 001°25'0 0.1
2017-Sep-15 04:00N 50°54' W 001°25'2 3.5
2017-Sep-15 03:30N 50°53' W 001°23'510.0
2017-Sep-15 03:00N 50°49' W 001°18'4 8.2
2017-Sep-15 02:31N 50°46' W 001°14'815.1
2017-Sep-15 02:00N 50°44' W 001°02'510.7
2017-Sep-15 01:30N 50°39' W 000°59'713.1
2017-Sep-15 01:00N 50°32' W 000°59'816.1
2017-Sep-15 00:30N 50°24' W 001°01'2315.5
2017-Sep-14 22:59N 50°01' W 000°54'1214.7
2017-Sep-14 22:12N 49°52' W 000°42'1315.1
2017-Sep-14 21:20N 49°43' W 000°28'515.0
2017-Sep-14 21:00N 49°40' W 000°22'714.7
2017-Sep-14 20:30N 49°35' W 000°14'611.9
2017-Sep-14 20:00N 49°32' W 000°06'611.5
2017-Sep-14 19:30N 49°30' E 000°02'3 5.8
2017-Sep-14 19:00N 49°29' E 000°06'0 0.0
2017-Sep-14 18:30N 49°29' E 000°06'0 0.0
2017-Sep-14 18:00N 49°29' E 000°06'0 0.0
2017-Sep-14 17:30N 49°29' E 000°06'0 0.0
2017-Sep-14 17:00N 49°29' E 000°06'0 0.0
2017-Sep-14 16:30N 49°29' E 000°06'0 0.0
2017-Sep-14 16:00N 49°29' E 000°06'0 0.0
2017-Sep-14 15:30N 49°29' E 000°06'0 0.0
2017-Sep-14 15:00N 49°29' E 000°06'0 0.0
2017-Sep-14 14:30N 49°29' E 000°06'0 0.0
2017-Sep-14 14:00N 49°29' E 000°06'0 0.0
2017-Sep-14 13:30N 49°29' E 000°06'0 0.0
2017-Sep-14 13:00N 49°29' E 000°06'0 0.0
2017-Sep-14 12:30N 49°29' E 000°06'0 0.0
2017-Sep-14 12:00N 49°29' E 000°06'0 0.0
2017-Sep-14 11:30N 49°29' E 000°06'0 0.0
2017-Sep-14 11:00N 49°29' E 000°06'0 0.0
2017-Sep-14 10:30N 49°29' E 000°06'0 0.0
2017-Sep-14 10:00N 49°29' E 000°06'0 0.0
2017-Sep-14 09:30N 49°29' E 000°06'0 0.0
2017-Sep-14 09:00N 49°29' E 000°06'0 0.0
2017-Sep-14 08:30N 49°29' E 000°06'0 0.0
2017-Sep-14 08:00N 49°29' E 000°06'0 0.0
2017-Sep-14 07:30N 49°29' E 000°06'0 0.0
2017-Sep-14 07:00N 49°29' E 000°06'0 0.0
2017-Sep-14 06:30N 49°29' E 000°06'0 0.8
2017-Sep-14 06:00N 49°29' E 000°07'2 3.6
2017-Sep-14 05:30N 49°29' E 000°04'713.0
2017-Sep-14 05:00N 49°31' W 000°05'0 0.9
2017-Sep-14 04:30N 49°31' W 000°06'0 0.1
2017-Sep-14 04:00N 49°31' W 000°06'3 5.1
2017-Sep-14 03:30N 49°32' W 000°10'612.9
2017-Sep-14 03:01N 49°35' W 000°18'918.1
2017-Sep-14 02:30N 49°40' W 000°30'918.2
2017-Sep-14 02:00N 49°46' W 000°42'918.5
2017-Sep-14 01:30N 49°51' W 000°53'1019.0
2017-Sep-14 01:00N 49°56' W 001°05'1019.5
2017-Sep-14 00:30N 49°58' W 001°20'1121.7
2017-Sep-14 00:01N 49°58' W 001°37'1122.1
2017-Sep-13 23:30N 49°58' W 001°54'1121.6
2017-Sep-13 23:01N 49°57' W 002°11'2220.5
2017-Sep-13 21:55N 49°51' W 002°44'2320.3
2017-Sep-13 20:47N 49°40' W 003°16'620.2
2017-Sep-13 20:30N 49°37' W 003°23'2420.1
2017-Sep-13 19:20N 49°26' W 003°56'4219.7
2017-Sep-13 17:12N 49°05' W 004°52'617.3
2017-Sep-13 16:52N 49°02' W 004°59'616.9
2017-Sep-13 16:30N 48°59' W 005°07'916.8
2017-Sep-13 15:59N 48°54' W 005°18'817.0
2017-Sep-13 15:30N 48°50' W 005°29'815.7
2017-Sep-13 14:59N 48°45' W 005°39'1915.7
2017-Sep-13 13:48N 48°28' W 005°49'2116.7
2017-Sep-13 12:33N 48°09' W 005°60'  

Dump ship's entire track history